Time;durP1;ratioP1;P1;durP2;ratioP2;P2;SDS_P1;SDS_P2;PMS_P1;PMS_P2;Temp;Humidity;BMP_temperature;BMP_pressure;BME280_temperature;BME280_humidity;BME280_pressure;Samples;Min_cycle;Max_cycle;Signal;HPM_P1;HPM_P2
2022/06/20 00:01:08;;;;;;;10.73;5.20;;;;;;;12.65;100.00;163873.00;5005859;28;20628;-59
2022/06/20 00:03:46;;;;;;;14.88;5.28;;;;;;;12.64;100.00;163868.97;5012397;28;20033;-59
2022/06/20 00:06:17;;;;;;;10.55;4.90;;;;;;;12.63;100.00;163867.59;4997536;28;20066;-59
2022/06/20 00:08:43;;;;;;;8.90;4.10;;;;;;;12.57;100.00;163850.03;4992493;28;20026;-59
2022/06/20 00:11:17;;;;;;;10.57;5.25;;;;;;;12.48;100.00;163827.03;4990991;28;20050;-59
2022/06/20 00:13:49;;;;;;;20.98;4.88;;;;;;;12.49;100.00;163829.75;5000650;28;20454;-59
2022/06/20 00:16:16;;;;;;;8.68;5.05;;;;;;;12.45;100.00;163818.97;5006013;28;20052;-60
2022/06/20 00:18:42;;;;;;;12.02;5.45;;;;;;;12.36;100.00;163797.34;4997586;28;20033;-59
2022/06/20 00:21:20;;;;;;;15.25;4.65;;;;;;;12.36;100.00;163797.34;4990778;28;20070;-59
2022/06/20 00:23:45;;;;;;;11.73;5.77;;;;;;;12.33;100.00;163789.22;4992270;28;20053;-59
2022/06/20 00:26:10;;;;;;;12.93;5.95;;;;;;;12.27;100.00;163771.66;4990424;28;20070;-59
2022/06/20 00:28:36;;;;;;;11.77;5.15;;;;;;;12.21;100.00;163756.78;4995351;28;20032;-59
2022/06/20 00:31:02;;;;;;;14.88;5.25;;;;;;;12.25;100.00;163767.59;5006987;28;20491;-59
2022/06/20 00:33:28;;;;;;;7.60;4.53;;;;;;;12.20;100.00;163754.09;5007090;28;20096;-59
2022/06/20 00:35:53;;;;;;;15.02;6.20;;;;;;;12.21;100.00;163756.78;5004596;28;20038;-59
2022/06/20 00:38:21;;;;;;;9.18;4.78;;;;;;;12.25;100.00;163766.25;5010151;28;20124;-59
2022/06/20 00:40:50;;;;;;;13.57;5.25;;;;;;;12.20;100.00;163755.47;4995463;28;20165;-59
2022/06/20 00:43:31;;;;;;;18.98;6.55;;;;;;;12.18;100.00;163748.66;4991986;28;20018;-59
2022/06/20 00:46:01;;;;;;;16.65;5.90;;;;;;;12.14;100.00;163739.22;4990266;28;20389;-59
2022/06/20 00:48:34;;;;;;;14.77;7.82;;;;;;;12.11;100.00;163731.13;4991081;28;20411;-59
2022/06/20 00:51:07;;;;;;;14.77;6.82;;;;;;;12.03;100.00;163710.84;4993878;28;20042;-59
2022/06/20 00:53:41;;;;;;;12.43;6.13;;;;;;;11.87;100.00;163667.59;4991596;28;20026;-59
2022/06/20 00:56:17;;;;;;;12.57;5.00;;;;;;;11.95;100.00;163689.16;4990383;28;20038;-60
2022/06/20 00:58:49;;;;;;;15.32;6.30;;;;;;;11.91;100.00;163679.72;4991818;28;20104;-60
2022/06/20 01:01:16;;;;;;;16.10;5.68;;;;;;;11.90;100.00;163675.69;4990334;28;20046;-60
2022/06/20 01:03:48;;;;;;;8.97;6.50;;;;;;;11.86;100.00;163664.91;5010364;28;20030;-60
2022/06/20 01:06:23;;;;;;;16.00;7.38;;;;;;;11.82;100.00;163654.06;5007882;28;20097;-60
2022/06/20 01:08:57;;;;;;;11.20;6.47;;;;;;;11.79;100.00;163645.97;4999924;28;20026;-60
2022/06/20 01:11:26;;;;;;;11.27;5.65;;;;;;;11.75;100.00;163637.84;4993378;28;20438;-60
2022/06/20 01:13:52;;;;;;;14.57;5.75;;;;;;;11.72;100.00;163629.78;4999397;28;20032;-59
2022/06/20 01:16:25;;;;;;;14.38;7.05;;;;;;;11.66;100.00;163613.53;5008939;28;20128;-63
2022/06/20 01:18:52;;;;;;;13.57;5.90;;;;;;;11.61;100.00;163600.03;4991389;28;20019;-60
2022/06/20 01:21:21;;;;;;;12.40;5.57;;;;;;;11.56;100.00;163586.53;4989833;28;20100;-60
2022/06/20 01:24:16;;;;;;;14.73;7.10;;;;;;;11.56;100.00;163586.53;4994206;28;20068;-60
2022/06/20 01:26:51;;;;;;;12.40;5.60;;;;;;;11.53;100.00;163578.41;5001415;28;20120;-60
2022/06/20 01:29:17;;;;;;;21.73;6.78;;;;;;;11.51;100.00;163573.00;5010625;28;20022;-60
2022/06/20 01:31:47;;;;;;;20.23;8.07;;;;;;;11.47;100.00;163562.22;4990308;28;20046;-60
2022/06/20 01:34:15;;;;;;;10.85;6.03;;;;;;;11.45;100.00;163556.81;4991036;28;20186;-60
2022/06/20 01:39:28;;;;;;;14.48;6.38;;;;;;;11.39;100.00;163543.31;4991534;28;20053;-58
2022/06/20 01:44:42;;;;;;;12.93;6.57;;;;;;;11.28;100.00;163513.63;5010324;28;20045;-60
2022/06/20 01:47:08;;;;;;;13.77;6.97;;;;;;;11.27;100.00;163510.94;5009247;28;20034;-61
2022/06/20 01:49:35;;;;;;;16.63;7.45;;;;;;;11.28;100.00;163513.63;5010685;28;20472;-61
2022/06/20 01:52:07;;;;;;;27.73;7.60;;;;;;;11.38;100.00;163540.63;5008028;28;20466;-61
2022/06/20 01:54:37;;;;;;;15.50;6.65;;;;;;;11.47;100.00;163562.22;5011037;28;20030;-60
2022/06/20 01:57:05;;;;;;;17.25;7.00;;;;;;;11.53;100.00;163578.41;5006598;28;20061;-60
2022/06/20 01:59:46;;;;;;;15.45;7.60;;;;;;;11.58;100.00;163591.91;5006308;28;20040;-60
2022/06/20 02:02:13;;;;;;;16.85;7.28;;;;;;;11.63;100.00;163605.47;5013162;28;20052;-60
2022/06/20 02:04:39;;;;;;;21.35;8.93;;;;;;;11.66;100.00;163612.19;5014420;28;20115;-60
2022/06/20 02:07:08;;;;;;;14.85;7.32;;;;;;;11.68;100.00;163618.94;5012519;28;20042;-61
2022/06/20 02:09:35;;;;;;;18.27;9.02;;;;;;;11.66;100.00;163613.53;5014455;28;20030;-61
2022/06/20 02:12:02;;;;;;;13.68;8.30;;;;;;;11.62;100.00;163601.38;5012675;28;20563;-60
2022/06/20 02:14:42;;;;;;;18.02;8.02;;;;;;;11.59;100.00;163594.63;5004624;28;20035;-60
2022/06/20 02:17:16;;;;;;;13.40;9.40;;;;;;;11.61;100.00;163600.03;5000741;28;20464;-60
2022/06/20 02:19:55;;;;;;;18.65;9.18;;;;;;;11.60;100.00;163597.31;4993422;28;20041;-60
2022/06/20 02:22:23;;;;;;;18.25;8.85;;;;;;;11.60;100.00;163597.31;4994075;28;20037;-61
2022/06/20 02:24:54;;;;;;;16.63;10.00;;;;;;;11.56;100.00;163587.88;4992746;28;20026;-61
2022/06/20 02:27:42;;;;;;;26.10;9.10;;;;;;;11.62;100.00;163602.75;4994225;28;20034;-61
2022/06/20 02:30:09;;;;;;;15.90;9.07;;;;;;;11.62;100.00;163602.75;4993024;28;20386;-61
2022/06/20 02:32:45;;;;;;;17.38;8.98;;;;;;;11.62;100.00;163602.75;4996359;28;20075;-61
2022/06/20 02:35:15;;;;;;;13.77;7.47;;;;;;;11.62;100.00;163601.38;4992341;28;20563;-61
2022/06/20 02:37:40;;;;;;;17.75;9.60;;;;;;;11.57;100.00;163590.59;4994645;28;20053;-62
2022/06/20 02:40:10;;;;;;;14.30;7.88;;;;;;;11.55;100.00;163583.84;4992967;28;20057;-62
2022/06/20 02:42:43;;;;;;;16.20;8.82;;;;;;;11.52;100.00;163577.09;4994066;28;20028;-63
2022/06/20 02:45:11;;;;;;;23.60;8.05;;;;;;;11.59;100.00;163594.63;4992965;28;20724;-62
2022/06/20 02:47:40;;;;;;;14.03;8.07;;;;;;;11.59;100.00;163596.00;4983945;28;20125;-62
2022/06/20 02:50:06;;;;;;;24.40;8.68;;;;;;;11.59;100.00;163594.63;4976617;28;20641;-62
2022/06/20 02:52:48;;;;;;;18.20;8.38;;;;;;;11.60;100.00;163597.31;4989987;28;20125;-61
2022/06/20 02:55:16;;;;;;;23.10;8.75;;;;;;;11.60;100.00;163597.31;4990346;28;20045;-61
2022/06/20 02:57:46;;;;;;;13.33;7.70;;;;;;;11.60;100.00;163597.31;4974404;28;20042;-61
2022/06/20 03:00:22;;;;;;;20.02;9.38;;;;;;;11.61;100.00;163600.03;4972850;28;20198;-61
2022/06/20 03:02:54;;;;;;;23.55;9.02;;;;;;;11.63;100.00;163605.47;4974688;28;20027;-61
2022/06/20 03:05:19;;;;;;;17.45;8.20;;;;;;;11.72;100.00;163628.41;4972804;28;20066;-61
2022/06/20 03:07:46;;;;;;;17.95;8.35;;;;;;;11.79;100.00;163645.97;4977898;28;20482;-62
2022/06/20 03:10:28;;;;;;;14.32;8.85;;;;;;;11.84;100.00;163659.47;4992093;28;20180;-62
2022/06/20 03:12:54;;;;;;;17.25;9.27;;;;;;;11.95;100.00;163689.16;4992942;28;20019;-62
2022/06/20 03:15:20;;;;;;;12.93;8.48;;;;;;;11.98;100.00;163697.34;4993868;28;20187;-62
2022/06/20 03:17:48;;;;;;;14.60;8.32;;;;;;;12.04;100.00;163712.22;5013370;28;20026;-62
2022/06/20 03:20:15;;;;;;;13.50;7.97;;;;;;;12.06;100.00;163718.97;5011168;28;20042;-62
2022/06/20 03:22:48;;;;;;;15.65;9.45;;;;;;;12.03;100.00;163710.84;4995436;28;20476;-61
2022/06/20 03:25:16;;;;;;;11.73;6.78;;;;;;;12.03;100.00;163710.84;5000877;28;20050;-61
2022/06/20 03:27:42;;;;;;;19.77;10.35;;;;;;;11.97;100.00;163694.63;5002307;28;20065;-61
2022/06/20 03:30:19;;;;;;;12.88;7.30;;;;;;;12.02;100.00;163708.19;5005553;28;20504;-60
2022/06/20 03:32:45;;;;;;;30.67;8.95;;;;;;;11.96;100.00;163690.56;5021518;28;20113;-60
2022/06/20 03:35:10;;;;;;;12.68;8.13;;;;;;;12.02;100.00;163708.19;5021592;28;20132;-60
2022/06/20 03:37:37;;;;;;;17.05;8.63;;;;;;;11.99;100.00;163700.06;5020437;28;20029;-60
2022/06/20 03:40:03;;;;;;;20.65;7.85;;;;;;;12.00;100.00;163702.75;5013639;28;20049;-60
2022/06/20 03:42:29;;;;;;;16.85;5.88;;;;;;;12.03;100.00;163710.84;5016957;28;20025;-60
2022/06/20 03:44:58;;;;;;;15.02;5.72;;;;;;;12.01;100.00;163705.47;5018024;28;20068;-60
2022/06/20 03:47:29;;;;;;;13.93;6.28;;;;;;;11.99;100.00;163700.06;5022215;28;20018;-60
2022/06/20 03:50:00;;;;;;;15.75;7.32;;;;;;;11.97;100.00;163694.63;5018878;28;20057;-60
2022/06/20 03:52:40;;;;;;;20.13;6.65;;;;;;;11.93;100.00;163682.41;5021145;28;20013;-60
2022/06/20 03:55:15;;;;;;;14.23;5.75;;;;;;;11.90;100.00;163675.69;5014152;28;20167;-61
2022/06/20 03:57:48;;;;;;;15.82;7.18;;;;;;;11.90;100.00;163677.06;5010743;28;20022;-61
2022/06/20 04:00:17;;;;;;;14.20;7.25;;;;;;;11.88;100.00;163670.25;5018619;28;20100;-58
2022/06/20 04:02:58;;;;;;;21.17;7.78;;;;;;;11.90;100.00;163675.69;5031620;28;20029;-60
2022/06/20 04:05:30;;;;;;;11.50;5.13;;;;;;;11.86;100.00;163664.91;5029311;28;20052;-60
2022/06/20 04:10:57;;;;;;;19.45;7.70;;;;;;;11.98;100.00;163697.34;5020453;28;20145;-62
2022/06/20 04:11:16;;;;;;;13.48;6.22;;;;;;;12.01;100.00;163705.47;5011726;28;20042;-57
2022/06/20 04:14:03;;;;;;;10.37;5.37;;;;;;;11.95;100.00;163689.16;5016886;28;20029;-58
2022/06/20 04:16:39;;;;;;;14.45;7.57;;;;;;;11.84;100.00;163660.81;5015985;28;20643;-58
2022/06/20 04:19:24;;;;;;;13.75;4.88;;;;;;;11.79;100.00;163645.97;5013991;28;20072;-58
2022/06/20 04:21:55;;;;;;;18.25;7.40;;;;;;;11.80;100.00;163648.69;5011274;28;20070;-58
2022/06/20 04:24:27;;;;;;;11.43;5.45;;;;;;;11.82;100.00;163654.06;5015925;28;20039;-57
2022/06/20 04:27:19;;;;;;;19.52;6.65;;;;;;;11.79;100.00;163645.97;5018745;28;20123;-57
2022/06/20 04:29:49;;;;;;;12.02;6.00;;;;;;;11.71;100.00;163627.06;5013818;28;20497;-57
2022/06/20 04:32:35;;;;;;;17.65;6.03;;;;;;;11.77;100.00;163640.56;5016261;28;20057;-57
2022/06/20 04:35:17;;;;;;;15.73;6.90;;;;;;;11.68;100.00;163617.63;4993554;28;20485;-57
2022/06/20 04:37:49;;;;;;;18.33;6.38;;;;;;;11.67;100.00;163616.22;5011018;28;20104;-57
2022/06/20 04:40:21;;;;;;;13.85;7.30;;;;;;;11.77;100.00;163640.56;5030205;28;20469;-57
2022/06/20 04:42:51;;;;;;;18.35;7.47;;;;;;;12.00;100.00;163701.38;5009834;28;20033;-57
2022/06/20 04:45:22;;;;;;;22.42;8.73;;;;;;;12.10;100.00;163728.41;5008551;28;20517;-57
2022/06/20 04:47:57;;;;;;;17.73;5.97;;;;;;;12.20;100.00;163754.09;5005496;28;20025;-57
2022/06/20 04:50:26;;;;;;;16.80;7.15;;;;;;;12.35;100.00;163794.63;5005090;28;20077;-57
2022/06/20 04:52:55;;;;;;;23.35;8.88;;;;;;;12.47;100.00;163824.38;5011307;28;20025;-57
2022/06/20 04:55:27;;;;;;;15.68;6.20;;;;;;;12.63;100.00;163866.25;5010010;28;20041;-57
2022/06/20 04:57:54;;;;;;;12.18;5.38;;;;;;;12.73;100.00;163891.94;5009831;28;20528;-57
2022/06/20 05:00:22;;;;;;;10.18;5.53;;;;;;;12.84;100.00;163923.03;5009048;28;20104;-57
2022/06/20 05:02:49;;;;;;;13.65;5.80;;;;;;;12.94;100.00;163947.38;5011099;28;20485;-57
2022/06/20 05:05:23;;;;;;;18.98;7.00;;;;;;;12.93;100.00;163945.97;5009552;28;20409;-57
2022/06/20 05:07:49;;;;;;;16.60;5.78;;;;;;;13.02;100.00;163969.00;5011493;28;20014;-57
2022/06/20 05:10:24;;;;;;;9.90;5.43;;;;;;;13.11;100.00;163991.97;5009906;28;20050;-57
2022/06/20 05:13:01;;;;;;;13.38;5.63;;;;;;;13.18;100.00;164010.88;5011112;28;20057;-57
2022/06/20 05:15:37;;;;;;;18.30;8.00;;;;;;;13.20;100.00;164014.94;5017494;28;20124;-57
2022/06/20 05:18:16;;;;;;;13.98;6.70;;;;;;;13.19;100.00;164013.59;5017832;28;20072;-57
2022/06/20 05:20:43;;;;;;;10.73;5.32;;;;;;;13.22;100.00;164021.69;5016748;28;20042;-57
2022/06/20 05:23:16;;;;;;;10.02;4.78;;;;;;;13.28;100.00;164037.94;5021822;28;20354;-57
2022/06/20 05:25:42;;;;;;;8.02;4.15;;;;;;;13.33;100.00;164051.44;5012648;28;20053;-57
2022/06/20 05:28:13;;;;;;;10.13;4.88;;;;;;;13.36;100.00;164056.88;5010552;28;20029;-57
2022/06/20 05:30:41;;;;;;;11.35;5.75;;;;;;;13.43;100.00;164075.84;5008054;28;20535;-57
2022/06/20 05:33:12;;;;;;;12.45;5.32;;;;;;;13.39;100.00;164065.00;5009905;28;20519;-57
2022/06/20 05:35:50;;;;;;;13.90;4.82;;;;;;;13.40;100.00;164067.72;5009455;28;20038;-57
2022/06/20 05:38:24;;;;;;;11.98;5.22;;;;;;;13.48;100.00;164090.69;5011234;28;20034;-57
2022/06/20 05:40:54;;;;;;;9.48;5.28;;;;;;;13.49;100.00;164092.06;5009075;28;20232;-57
2022/06/20 05:43:22;;;;;;;15.05;5.43;;;;;;;13.53;100.00;164102.88;5011058;28;20072;-57
2022/06/20 05:45:53;;;;;;;10.77;4.97;;;;;;;13.62;100.00;164127.22;5009731;28;20038;-57
2022/06/20 05:48:24;;;;;;;10.55;5.25;;;;;;;13.77;100.00;164165.06;5010803;28;20022;-57
2022/06/20 05:50:58;;;;;;;19.25;5.93;;;;;;;13.85;100.00;164186.72;5009431;28;20042;-57
2022/06/20 05:53:32;;;;;;;9.65;3.70;;;;;;;13.95;100.00;164213.78;5010995;28;20057;-57
2022/06/20 05:56:00;;;;;;;15.52;3.70;;;;;;;14.04;100.00;164235.38;5009120;28;20421;-57
2022/06/20 05:58:33;;;;;;;7.65;4.57;;;;;;;14.24;100.00;164289.53;5010905;28;20025;-57
2022/06/20 06:01:03;;;;;;;6.35;3.10;;;;;;;14.25;100.00;164292.25;5009350;28;20046;-57
2022/06/20 06:03:37;;;;;;;13.98;3.30;;;;;;;14.36;100.00;164319.28;5011043;28;20022;-58
2022/06/20 06:06:08;;;;;;;10.82;3.97;;;;;;;14.58;100.00;164378.81;5009425;28;20053;-57
2022/06/20 06:09:06;;;;;;;11.18;3.03;;;;;;;14.73;100.00;164418.13;5010829;28;20048;-58
2022/06/20 06:11:39;;;;;;;6.05;3.55;;;;;;;14.81;100.00;164438.41;4990130;28;20052;-57
2022/06/20 06:14:11;;;;;;;11.10;4.30;;;;;;;14.96;100.00;164476.28;5010486;28;20026;-57
2022/06/20 06:16:48;;;;;;;8.30;4.20;;;;;;;15.00;100.00;164488.47;5009124;28;20042;-57
2022/06/20 06:19:20;;;;;;;6.50;2.80;;;;;;;15.02;100.00;164492.53;5010435;28;20105;-58
2022/06/20 06:21:47;;;;;;;8.15;2.80;;;;;;;15.14;100.00;164525.03;5008656;28;20048;-57
2022/06/20 06:24:16;;;;;;;5.30;3.00;;;;;;;15.14;100.00;164523.66;5009348;28;20033;-57
2022/06/20 06:26:43;;;;;;;15.98;3.92;;;;;;;15.05;100.00;164500.66;5007878;28;20050;-58
2022/06/20 06:29:17;;;;;;;18.38;4.68;;;;;;;15.00;100.00;164488.47;5009845;28;20037;-57
2022/06/20 06:31:46;;;;;;;21.60;4.07;;;;;;;14.96;100.00;164476.28;5008493;28;20038;-57
2022/06/20 06:34:32;;;;;;;13.38;3.40;;;;;;;15.03;100.00;164495.22;5010126;28;20026;-57
2022/06/20 06:37:03;;;;;;;5.35;2.63;;;;;;;15.42;100.00;164596.75;5008451;28;20444;-57
2022/06/20 06:39:36;;;;;;;11.30;3.83;;;;;;;15.76;100.00;164687.47;5010082;28;20025;-57
2022/06/20 06:42:04;;;;;;;5.15;2.58;;;;;;;15.77;100.00;164690.16;5009065;28;20042;-58
2022/06/20 06:44:33;;;;;;;3.08;2.15;;;;;;;15.99;100.00;164747.09;5010450;28;20032;-57
2022/06/20 06:47:00;;;;;;;5.15;2.88;;;;;;;16.06;100.00;164766.03;5010332;28;20049;-58
2022/06/20 06:49:44;;;;;;;11.13;2.10;;;;;;;16.16;100.00;164793.16;5014203;28;20021;-58
2022/06/20 06:52:40;;;;;;;6.43;2.30;;;;;;;16.54;100.00;164892.00;5013033;28;20059;-57
2022/06/20 06:55:21;;;;;;;8.43;3.33;;;;;;;16.24;100.00;164812.09;5012055;28;20497;-57
2022/06/20 06:57:53;;;;;;;6.50;3.95;;;;;;;16.27;100.00;164820.25;5014126;28;20057;-57
2022/06/20 07:00:28;;;;;;;7.97;2.65;;;;;;;16.44;100.00;164866.28;5012722;28;20038;-58
2022/06/20 07:03:00;;;;;;;6.88;2.42;;;;;;;16.78;100.00;164955.72;5013337;28;20080;-57
2022/06/20 07:05:36;;;;;;;6.93;2.92;;;;;;;16.93;100.00;164993.69;5012525;28;20062;-57
2022/06/20 07:08:38;;;;;;;5.93;2.90;;;;;;;17.02;100.00;165018.03;5013602;28;20087;-58
2022/06/20 07:11:09;;;;;;;5.80;2.33;;;;;;;17.17;100.00;165057.38;5000336;28;20038;-58
2022/06/20 07:13:41;;;;;;;7.03;3.25;;;;;;;17.11;100.00;165042.44;5013536;28;20032;-57
2022/06/20 07:16:25;;;;;;;6.00;2.47;;;;;;;16.91;100.00;164989.53;5012049;28;20038;-58
2022/06/20 07:18:53;;;;;;;7.38;2.53;;;;;;;16.66;100.00;164923.16;5013316;28;20097;-58
2022/06/20 07:21:22;;;;;;;5.72;2.72;;;;;;;16.42;100.00;164860.84;5011940;28;20038;-58
2022/06/20 07:24:12;;;;;;;6.88;2.67;;;;;;;16.12;100.00;164782.28;5013518;28;20043;-58
2022/06/20 07:26:43;;;;;;;12.07;3.63;;;;;;;15.91;100.00;164726.81;5011783;28;20057;-58
2022/06/20 07:29:21;;;;;;;7.18;2.58;;;;;;;15.89;100.00;164720.03;5012960;28;20139;-58
2022/06/20 07:31:54;;;;;;;5.80;2.63;;;;;;;16.10;100.00;164775.53;5011559;28;20125;-58
2022/06/20 07:34:30;;;;;;;8.38;3.03;;;;;;;16.46;100.00;164870.31;5013494;28;20480;-58
2022/06/20 07:37:04;;;;;;;6.53;2.58;;;;;;;16.71;100.00;164935.38;5011749;28;20042;-58
2022/06/20 07:39:42;;;;;;;16.13;5.43;;;;;;;16.53;100.00;164887.94;5012731;28;20501;-57
2022/06/20 07:42:15;;;;;;;3.10;1.90;;;;;;;16.55;100.00;164893.38;5011882;28;20148;-58
2022/06/20 07:44:45;;;;;;;7.30;2.85;;;;;;;16.46;100.00;164871.72;5012875;28;20029;-57
2022/06/20 07:47:30;;;;;;;5.97;2.63;;;;;;;16.25;100.00;164814.81;5011140;28;20034;-57
2022/06/20 07:50:00;;;;;;;3.72;1.90;;;;;;;16.54;100.00;164890.66;5011819;28;20022;-57
2022/06/20 07:52:51;;;;;;;9.88;2.83;;;;;;;17.07;100.00;165030.25;5013156;28;20461;-58
2022/06/20 07:55:25;;;;;;;11.32;3.08;;;;;;;17.31;100.00;165093.97;5011163;28;20136;-58
2022/06/20 07:58:01;;;;;;;6.00;3.35;;;;;;;17.12;100.00;165045.16;5012251;28;20184;-58
2022/06/20 08:00:31;;;;;;;2.90;1.85;;;;;;;16.98;100.00;165007.22;5011256;28;20466;-58
2022/06/20 08:03:06;;;;;;;3.75;2.53;;;;;;;16.92;100.00;164992.31;5012437;28;20543;-57
2022/06/20 08:05:39;;;;;;;7.68;3.00;;;;;;;16.62;100.00;164913.69;5011486;28;20129;-58
2022/06/20 08:08:30;;;;;;;7.45;3.08;;;;;;;16.13;100.00;164785.00;5011962;28;20029;-58
2022/06/20 08:11:03;;;;;;;7.00;2.72;;;;;;;16.44;100.00;164866.28;5006177;28;20039;-57
2022/06/20 08:13:51;;;;;;;6.40;2.63;;;;;;;16.41;100.00;164858.19;5010634;28;20021;-58
2022/06/20 08:16:23;;;;;;;6.05;3.22;;;;;;;16.48;100.00;164877.13;5006840;28;20042;-57
2022/06/20 08:18:48;;;;;;;7.85;3.13;;;;;;;17.07;100.00;165031.63;4992952;28;20029;-57
2022/06/20 08:21:19;;;;;;;8.90;3.78;;;;;;;17.50;100.00;165142.72;4991157;28;20437;-58
2022/06/20 08:23:50;;;;;;;8.25;2.72;;;;;;;18.05;100.00;165287.81;4992215;28;20050;-58
2022/06/20 08:26:21;;;;;;;6.88;2.55;;;;;;;18.37;100.00;165373.22;4991246;28;20061;-58
2022/06/20 08:28:57;;;;;;;10.95;4.43;;;;;;;18.74;100.00;165469.53;4992615;28;20026;-58
2022/06/20 08:31:32;;;;;;;12.25;3.88;;;;;;;18.86;100.00;165500.72;4977279;28;20079;-58
2022/06/20 08:34:14;;;;;;;3.72;2.67;;;;;;;19.19;100.00;165587.56;4972882;28;20035;-58
2022/06/20 08:36:51;;;;;;;8.15;4.15;;;;;;;19.28;100.00;165612.00;4971681;28;20046;-57
2022/06/20 08:39:21;;;;;;;9.32;3.25;;;;;;;19.56;100.00;165685.25;4979459;28;20030;-58
2022/06/20 08:42:16;;;;;;;13.02;3.80;;;;;;;19.13;100.00;165571.31;5007619;28;20046;-58
2022/06/20 08:45:04;;;;;;;10.30;3.47;;;;;;;19.17;100.00;165583.50;5011653;28;20022;-58
2022/06/20 08:48:00;;;;;;;9.43;3.13;;;;;;;19.20;100.00;165590.28;5010500;28;20084;-58
2022/06/20 08:50:44;;;;;;;5.57;2.50;;;;;;;19.06;100.00;165553.69;5010243;28;20401;-57
2022/06/20 08:53:10;;;;;;;6.47;2.20;;;;;;;18.64;100.00;165443.78;5011138;28;20030;-58
2022/06/20 08:55:53;;;;;;;7.88;3.25;;;;;;;18.94;100.00;165522.50;5010577;28;20494;-58
2022/06/20 08:58:48;;;;;;;7.57;2.58;;;;;;;19.29;100.00;165614.72;5011760;28;20510;-58
2022/06/20 09:01:35;;;;;;;15.00;5.30;;;;;;;19.49;100.00;165666.25;5009696;28;20065;-57
2022/06/20 09:04:34;;;;;;;6.57;2.63;;;;;;;18.93;100.00;165519.78;5011486;28;20188;-57
2022/06/20 09:07:18;;;;;;;5.97;3.80;;;;;;;18.99;100.00;165534.66;4989941;28;20042;-58
2022/06/20 09:09:56;;;;;;;9.23;4.25;;;;;;;18.90;100.00;165510.22;5009208;28;20109;-56
2022/06/20 09:13:03;;;;;;;9.50;3.92;;;;;;;18.89;100.00;165508.84;5011795;28;20036;-57
2022/06/20 09:15:44;;;;;;;6.53;3.30;;;;;;;19.49;100.00;165667.66;5009729;28;20497;-58
2022/06/20 09:18:18;;;;;;;3.53;2.55;;;;;;;20.14;100.00;165837.31;5011051;28;20044;-58
2022/06/20 09:20:46;;;;;;;7.85;3.10;;;;;;;19.17;100.00;165582.19;5009919;28;20049;-58
2022/06/20 09:23:38;;;;;;;7.55;2.90;;;;;;;18.88;100.00;165506.13;5010994;28;20446;-58
2022/06/20 09:26:05;;;;;;;13.90;4.70;;;;;;;18.22;100.00;165332.56;5009063;28;20057;-58
2022/06/20 09:28:40;;;;;;;10.38;3.38;;;;;;;18.19;100.00;165325.78;5011231;28;20061;-58
2022/06/20 09:31:14;;;;;;;7.22;3.10;;;;;;;18.38;100.00;165375.94;5009353;28;20050;-58
2022/06/20 09:34:01;;;;;;;10.85;3.13;;;;;;;18.75;100.00;165470.88;5011294;28;20495;-58
2022/06/20 09:37:01;;;;;;;6.90;2.92;;;;;;;19.77;100.00;165739.56;5009499;28;20394;-58
2022/06/20 09:39:40;;;;;;;9.52;3.42;;;;;;;20.52;100.00;165937.72;5011373;28;20410;-58
2022/06/20 09:42:37;;;;;;;7.13;3.20;;;;;;;20.47;100.00;165924.16;4995918;28;20445;-58
2022/06/20 09:45:21;;;;;;;11.35;3.38;;;;;;;20.54;100.00;165943.19;5004905;28;20046;-57
2022/06/20 09:48:14;;;;;;;7.50;3.20;;;;;;;20.45;100.00;165918.72;5010883;28;20029;-59
2022/06/20 09:50:52;;;;;;;6.78;2.75;;;;;;;19.94;100.00;165784.38;5009568;28;20034;-58
2022/06/20 09:53:53;;;;;;;5.72;2.55;;;;;;;19.26;100.00;165605.22;5011082;28;20041;-58
2022/06/20 09:56:30;;;;;;;12.98;3.95;;;;;;;18.82;100.00;165491.25;5009630;28;20517;-57
2022/06/20 09:59:33;;;;;;;14.48;3.20;;;;;;;18.73;100.00;165465.47;5010488;28;20603;-58
2022/06/20 10:02:11;;;;;;;9.10;3.33;;;;;;;19.17;100.00;165582.19;5009329;28;20038;-57
2022/06/20 10:04:53;;;;;;;7.60;2.90;;;;;;;19.61;100.00;165698.84;5010999;28;20030;-57
2022/06/20 10:07:25;;;;;;;13.13;2.55;;;;;;;19.69;100.00;165717.84;5009231;28;20448;-58
2022/06/20 10:10:12;;;;;;;9.25;2.58;;;;;;;19.86;100.00;165764.00;5000820;28;20018;-58
2022/06/20 10:12:51;;;;;;;7.20;2.38;;;;;;;20.24;100.00;165864.44;4992122;28;20381;-57
2022/06/20 10:15:34;;;;;;;6.93;3.47;;;;;;;20.94;100.00;166046.44;4995573;28;20202;-58
2022/06/20 10:18:03;;;;;;;8.18;2.78;;;;;;;20.88;100.00;166032.84;5009902;28;20049;-58
2022/06/20 10:20:55;;;;;;;11.93;2.97;;;;;;;20.76;100.00;166001.63;5010305;28;20042;-57
2022/06/20 10:23:45;;;;;;;7.07;2.72;;;;;;;20.27;100.00;165872.63;5014070;28;20022;-58
2022/06/20 10:26:30;;;;;;;4.63;1.80;;;;;;;20.37;100.00;165897.00;5007230;28;20062;-58
2022/06/20 10:29:10;;;;;;;6.65;2.92;;;;;;;20.69;100.00;165982.56;5001660;28;20037;-58
2022/06/20 10:31:44;;;;;;;8.85;2.40;;;;;;;20.85;100.00;166024.69;5002946;28;20045;-58
2022/06/20 10:34:41;;;;;;;9.90;2.47;;;;;;;21.26;100.00;166130.63;4996443;28;20049;-58
2022/06/20 10:37:57;;;;;;;9.32;3.50;;;;;;;21.91;100.00;166301.81;4996361;28;20576;-58
2022/06/20 10:40:55;;;;;;;9.13;2.95;;;;;;;21.82;100.00;166278.69;4985793;28;20046;-57
2022/06/20 10:43:42;;;;;;;4.82;2.15;;;;;;;21.58;100.00;166214.84;4992809;28;20042;-58
2022/06/20 10:46:31;;;;;;;7.50;3.10;;;;;;;21.33;95.54;166149.63;4993115;28;20046;-57
2022/06/20 10:49:17;;;;;;;4.57;2.03;;;;;;;21.39;95.28;166165.94;5006080;28;20458;-58
2022/06/20 10:52:22;;;;;;;6.03;1.92;;;;;;;21.37;92.16;166160.47;4992746;28;20042;-57
2022/06/20 10:55:16;;;;;;;6.40;2.45;;;;;;;21.43;91.48;166176.78;4992193;28;20046;-58
2022/06/20 10:58:11;;;;;;;6.57;2.17;;;;;;;21.00;96.30;166062.72;4994185;28;20052;-58
2022/06/20 11:00:45;;;;;;;10.80;1.92;;;;;;;21.28;99.18;166136.03;4992540;28;20042;-58
2022/06/20 11:03:34;;;;;;;8.43;2.92;;;;;;;21.90;88.87;166299.09;4994014;28;20477;-58
2022/06/20 11:06:25;;;;;;;6.32;2.28;;;;;;;21.32;92.23;166146.91;4992280;28;20050;-58
2022/06/20 11:09:18;;;;;;;11.52;3.08;;;;;;;21.10;90.63;166089.88;4999396;28;20068;-58
2022/06/20 11:11:52;;;;;;;4.53;1.88;;;;;;;21.05;93.68;166076.28;4992176;28;20043;-58
2022/06/20 11:14:23;;;;;;;4.07;2.05;;;;;;;20.90;94.27;166038.25;4993709;28;20041;-58
2022/06/20 11:17:11;;;;;;;4.28;2.08;;;;;;;20.72;89.24;165989.34;4996865;28;20741;-58
2022/06/20 11:19:54;;;;;;;6.30;2.35;;;;;;;20.52;92.31;165937.72;5004247;28;20018;-58
2022/06/20 11:23:05;;;;;;;5.05;2.25;;;;;;;20.11;90.78;165829.16;4998031;28;20628;-58
2022/06/20 11:25:44;;;;;;;5.07;1.92;;;;;;;19.68;97.19;165715.13;4991829;28;20078;-58
2022/06/20 11:28:33;;;;;;;4.53;2.55;;;;;;;19.28;99.10;165612.00;4993156;28;20061;-58
2022/06/20 11:31:08;;;;;;;5.63;1.90;;;;;;;19.39;100.00;165639.16;4992344;28;20414;-58
2022/06/20 11:34:00;;;;;;;5.10;1.98;;;;;;;20.03;100.00;165807.44;4993099;28;20441;-58
2022/06/20 11:37:00;;;;;;;5.88;2.83;;;;;;;20.98;100.00;166057.25;4991976;28;20065;-58
2022/06/20 11:40:14;;;;;;;8.45;2.80;;;;;;;21.10;94.27;166088.50;4993633;28;20034;-58
2022/06/20 11:43:07;;;;;;;7.32;1.77;;;;;;;20.82;96.82;166015.19;4972596;28;20059;-58
2022/06/20 11:45:51;;;;;;;3.45;1.73;;;;;;;20.93;96.20;166045.03;4979288;28;20049;-57
2022/06/20 11:48:44;;;;;;;4.18;1.63;;;;;;;20.56;96.17;165948.63;4993599;28;20022;-57
2022/06/20 11:51:29;;;;;;;5.45;3.67;;;;;;;20.50;95.27;165932.34;4991665;28;20468;-58
2022/06/20 11:54:23;;;;;;;5.70;2.30;;;;;;;20.67;93.37;165975.75;4993120;28;20018;-58
2022/06/20 11:57:05;;;;;;;4.88;1.77;;;;;;;20.74;89.99;165994.78;4991993;28;20042;-58
2022/06/20 11:59:50;;;;;;;6.97;1.88;;;;;;;20.77;88.27;166004.31;4992913;28;20022;-58
2022/06/20 12:02:35;;;;;;;7.00;2.58;;;;;;;20.72;91.92;165990.72;4972625;28;20081;-58